createdAt,value
2022-08-29T00:01:10.394Z,5.50
2022-08-29T00:03:37.507Z,4.65
2022-08-29T00:06:04.845Z,4.78
2022-08-29T00:08:31.910Z,5.15
2022-08-29T00:10:58.874Z,4.78
2022-08-29T00:13:26.046Z,4.55
2022-08-29T00:15:53.094Z,5.38
2022-08-29T00:18:21.151Z,5.60
2022-08-29T00:20:48.689Z,4.70
2022-08-29T00:23:16.137Z,5.38
2022-08-29T00:25:43.198Z,5.85
2022-08-29T00:28:10.335Z,5.03
2022-08-29T00:30:38.171Z,5.60
2022-08-29T00:33:05.230Z,8.20
2022-08-29T00:35:37.861Z,5.22
2022-08-29T00:38:08.334Z,5.15
2022-08-29T00:40:58.121Z,4.85
2022-08-29T00:43:36.276Z,5.10
2022-08-29T00:46:06.212Z,5.97
2022-08-29T00:48:36.482Z,6.28
2022-08-29T00:51:07.906Z,4.95
2022-08-29T00:53:39.824Z,5.68
2022-08-29T00:56:08.695Z,5.25
2022-08-29T00:58:46.702Z,5.80
2022-08-29T01:01:14.384Z,5.88
2022-08-29T01:03:43.075Z,4.55
2022-08-29T01:06:11.637Z,5.50
2022-08-29T01:08:38.561Z,4.82
2022-08-29T01:11:25.039Z,4.85
2022-08-29T01:13:55.092Z,5.22
2022-08-29T01:16:24.383Z,5.13
2022-08-29T01:18:58.288Z,4.47
2022-08-29T01:21:57.309Z,4.60
2022-08-29T01:24:30.262Z,5.22
2022-08-29T01:26:57.499Z,4.07
2022-08-29T01:29:24.663Z,4.35
2022-08-29T01:31:57.137Z,4.93
2022-08-29T01:34:26.475Z,4.13
2022-08-29T01:36:57.528Z,4.75
2022-08-29T01:39:27.692Z,4.10
2022-08-29T01:41:57.124Z,4.80
2022-08-29T01:44:26.407Z,3.80
2022-08-29T01:47:02.206Z,4.55
2022-08-29T01:49:31.664Z,4.20
2022-08-29T01:51:58.558Z,5.80
2022-08-29T01:54:25.508Z,5.97
2022-08-29T01:56:53.827Z,4.60
2022-08-29T01:59:25.549Z,4.82
2022-08-29T02:01:58.520Z,4.85
2022-08-29T02:04:25.617Z,5.35
2022-08-29T02:06:52.795Z,4.18
2022-08-29T02:09:19.878Z,6.47
2022-08-29T02:11:48.463Z,5.38
2022-08-29T02:14:19.247Z,4.95
2022-08-29T02:16:47.939Z,5.18
2022-08-29T02:19:16.181Z,5.32
2022-08-29T02:21:44.533Z,4.88
2022-08-29T02:24:25.086Z,4.50
2022-08-29T02:26:55.407Z,5.28
2022-08-29T02:29:23.258Z,3.90
2022-08-29T02:31:50.257Z,4.88
2022-08-29T02:34:18.166Z,5.25
2022-08-29T02:36:45.085Z,5.40
2022-08-29T02:39:16.138Z,4.82
2022-08-29T02:41:44.441Z,5.18
2022-08-29T02:44:11.936Z,3.60
2022-08-29T02:46:38.957Z,5.05
2022-08-29T02:49:06.042Z,4.32
2022-08-29T02:51:33.931Z,5.63
2022-08-29T02:54:01.976Z,5.50
2022-08-29T02:56:30.070Z,4.97
2022-08-29T02:58:57.830Z,4.82
2022-08-29T03:01:26.382Z,6.88
2022-08-29T03:03:53.913Z,4.40
2022-08-29T03:06:21.211Z,5.47
2022-08-29T03:08:48.152Z,4.40
2022-08-29T03:11:17.434Z,5.47
2022-08-29T03:13:45.377Z,5.78
2022-08-29T03:16:12.991Z,5.30
2022-08-29T03:18:40.080Z,6.30
2022-08-29T03:21:16.696Z,5.25
2022-08-29T03:23:43.883Z,5.72
2022-08-29T03:26:11.020Z,7.45
2022-08-29T03:28:37.940Z,5.18
2022-08-29T03:31:05.251Z,5.60
2022-08-29T03:33:32.244Z,6.13
2022-08-29T03:35:59.223Z,5.90
2022-08-29T03:38:26.189Z,5.10
2022-08-29T03:40:53.594Z,5.95
2022-08-29T03:43:25.133Z,5.90
2022-08-29T03:45:52.952Z,4.55
2022-08-29T03:48:19.887Z,5.55
2022-08-29T03:50:46.942Z,4.70
2022-08-29T03:53:13.879Z,5.85
2022-08-29T03:55:41.574Z,6.18
2022-08-29T03:58:08.669Z,6.63
2022-08-29T04:00:35.818Z,5.85
2022-08-29T04:03:02.909Z,6.10
2022-08-29T04:05:30.133Z,5.53
2022-08-29T04:07:59.320Z,4.68
2022-08-29T04:10:32.494Z,6.05
2022-08-29T04:13:00.752Z,4.95
2022-08-29T04:15:29.216Z,5.03
2022-08-29T04:17:58.551Z,4.43
2022-08-29T04:20:28.515Z,4.70
2022-08-29T04:22:57.118Z,5.03
2022-08-29T04:25:26.175Z,5.10
2022-08-29T04:27:54.606Z,5.55
2022-08-29T04:30:24.309Z,4.70
2022-08-29T04:32:51.885Z,5.25
2022-08-29T04:35:18.900Z,6.28
2022-08-29T04:37:45.918Z,4.97
2022-08-29T04:40:16.035Z,6.88
2022-08-29T04:42:44.228Z,6.30
2022-08-29T04:45:13.701Z,5.93
2022-08-29T04:47:42.161Z,7.03
2022-08-29T04:50:12.935Z,5.25
2022-08-29T04:52:40.364Z,6.43
2022-08-29T04:55:09.002Z,4.88
2022-08-29T04:57:38.306Z,5.78
2022-08-29T05:00:11.914Z,5.00
2022-08-29T05:02:40.210Z,5.78
2022-08-29T05:05:08.841Z,5.78
2022-08-29T05:07:38.314Z,6.22
2022-08-29T05:10:23.735Z,7.82
2022-08-29T05:12:50.748Z,8.15
2022-08-29T05:15:18.738Z,5.90
2022-08-29T05:17:45.729Z,5.38
2022-08-29T05:20:13.120Z,6.55
2022-08-29T05:22:42.383Z,4.68
2022-08-29T05:25:17.386Z,5.22
2022-08-29T05:27:45.925Z,4.68
2022-08-29T05:30:12.947Z,6.20
2022-08-29T05:32:39.857Z,8.77
2022-08-29T05:35:07.444Z,7.60
2022-08-29T05:37:34.927Z,6.57
2022-08-29T05:40:02.270Z,9.60
2022-08-29T05:42:29.512Z,9.10
2022-08-29T05:44:56.919Z,10.52
2022-08-29T05:47:23.870Z,11.95
2022-08-29T05:49:50.943Z,9.40
2022-08-29T05:52:19.976Z,12.65
2022-08-29T05:54:47.016Z,15.15
2022-08-29T05:57:19.192Z,9.80
2022-08-29T05:59:52.455Z,8.75
2022-08-29T06:02:21.370Z,11.55
2022-08-29T06:04:48.706Z,14.18
2022-08-29T06:07:15.945Z,18.40
2022-08-29T06:09:44.731Z,20.45
2022-08-29T06:12:14.399Z,20.23
2022-08-29T06:14:42.048Z,19.05
2022-08-29T06:17:17.763Z,15.82
2022-08-29T06:19:44.737Z,19.15
2022-08-29T06:22:11.788Z,14.57
2022-08-29T06:24:39.875Z,16.63
2022-08-29T06:27:11.333Z,13.27
2022-08-29T06:29:43.570Z,16.27
2022-08-29T06:32:12.161Z,15.30
2022-08-29T06:34:39.165Z,17.08
2022-08-29T06:37:06.205Z,17.42
2022-08-29T06:39:33.174Z,14.27
2022-08-29T06:42:00.152Z,15.95
2022-08-29T06:44:30.653Z,14.45
2022-08-29T06:46:58.830Z,12.77
2022-08-29T06:49:26.157Z,11.73
2022-08-29T06:51:57.587Z,10.57
2022-08-29T06:54:28.200Z,10.38
2022-08-29T06:56:56.602Z,11.05
2022-08-29T06:59:24.056Z,10.10
2022-08-29T07:01:51.121Z,9.45
2022-08-29T07:04:20.559Z,10.98
2022-08-29T07:06:48.981Z,10.23
2022-08-29T07:09:15.964Z,11.60
2022-08-29T07:11:43.503Z,9.90
2022-08-29T07:14:11.245Z,10.65
2022-08-29T07:16:39.064Z,9.55
2022-08-29T07:19:07.646Z,10.27
2022-08-29T07:21:34.672Z,9.48
2022-08-29T07:24:02.293Z,10.43
2022-08-29T07:26:33.847Z,9.43
2022-08-29T07:29:03.976Z,9.10
2022-08-29T07:31:31.665Z,9.65
2022-08-29T07:34:02.848Z,9.82
2022-08-29T07:36:34.642Z,7.72
2022-08-29T07:39:04.438Z,7.88
2022-08-29T07:41:31.414Z,9.18
2022-08-29T07:43:58.361Z,7.63
2022-08-29T07:46:27.101Z,9.00
2022-08-29T07:48:54.451Z,7.63
2022-08-29T07:51:23.351Z,7.47
2022-08-29T07:53:51.442Z,6.03
2022-08-29T07:56:23.062Z,6.45
2022-08-29T07:58:52.155Z,5.93
2022-08-29T08:01:21.243Z,6.63
2022-08-29T08:03:50.869Z,5.50
2022-08-29T08:06:20.946Z,7.07
2022-08-29T08:08:48.669Z,5.60
2022-08-29T08:11:16.711Z,6.30
2022-08-29T08:13:44.600Z,5.63
2022-08-29T08:16:17.220Z,6.93
2022-08-29T08:18:45.238Z,4.45
2022-08-29T08:21:13.474Z,4.38
2022-08-29T08:23:41.490Z,4.97
2022-08-29T08:26:10.211Z,5.32
2022-08-29T08:28:37.910Z,5.97
2022-08-29T08:31:07.948Z,4.45
2022-08-29T08:33:38.931Z,5.43
2022-08-29T08:36:22.539Z,14.80
2022-08-29T08:38:50.878Z,10.27
2022-08-29T08:41:34.749Z,10.75
2022-08-29T08:44:29.045Z,8.85
2022-08-29T08:47:01.689Z,8.57
2022-08-29T08:50:10.037Z,10.82
2022-08-29T08:53:02.793Z,5.18
2022-08-29T08:55:46.961Z,4.50
2022-08-29T08:58:36.980Z,5.80
2022-08-29T09:01:18.975Z,4.68
2022-08-29T09:04:20.771Z,6.32
2022-08-29T09:07:06.254Z,8.23
2022-08-29T09:10:05.288Z,5.43
2022-08-29T09:12:35.278Z,4.95
2022-08-29T09:15:16.037Z,4.35
2022-08-29T09:17:57.985Z,4.57
2022-08-29T09:20:28.995Z,4.00
2022-08-29T09:23:01.277Z,4.88
2022-08-29T09:25:30.297Z,5.25
2022-08-29T09:27:58.563Z,5.28
2022-08-29T09:30:28.879Z,5.18
2022-08-29T09:33:04.865Z,5.03
2022-08-29T09:35:53.005Z,4.60
2022-08-29T09:38:28.297Z,4.10
2022-08-29T09:40:55.622Z,5.45
2022-08-29T09:43:44.369Z,4.68
2022-08-29T09:46:11.506Z,5.18
2022-08-29T09:49:00.193Z,5.40
2022-08-29T09:51:48.473Z,4.63
2022-08-29T09:54:28.504Z,4.90
2022-08-29T09:57:02.670Z,5.22
2022-08-29T09:59:35.925Z,6.82
2022-08-29T10:02:24.649Z,5.32
2022-08-29T10:05:02.809Z,4.72
2022-08-29T10:07:37.691Z,5.05
2022-08-29T10:10:20.069Z,6.28
2022-08-29T10:13:12.936Z,4.13
2022-08-29T10:15:51.373Z,5.35
2022-08-29T10:18:46.247Z,5.78
2022-08-29T10:24:24.402Z,5.93
2022-08-29T10:26:56.821Z,4.18
2022-08-29T10:30:07.623Z,5.00
2022-08-29T10:32:58.974Z,4.60
2022-08-29T10:35:35.374Z,4.20
2022-08-29T10:38:24.417Z,4.88
2022-08-29T10:41:02.030Z,5.07
2022-08-29T10:43:32.018Z,3.88
2022-08-29T10:46:10.893Z,4.85
2022-08-29T10:48:52.789Z,6.18
2022-08-29T10:51:51.827Z,4.07
2022-08-29T10:54:48.689Z,5.40
2022-08-29T10:57:44.384Z,4.75
2022-08-29T11:00:24.692Z,3.97
2022-08-29T11:03:10.323Z,5.25
2022-08-29T11:05:49.442Z,3.97
2022-08-29T11:08:35.138Z,4.40
2022-08-29T11:11:02.124Z,3.70
2022-08-29T11:13:36.051Z,4.43
2022-08-29T11:16:05.800Z,4.55
2022-08-29T11:18:40.918Z,5.65
2022-08-29T11:21:27.402Z,4.30
2022-08-29T11:23:56.406Z,4.20
2022-08-29T11:26:23.287Z,5.32
2022-08-29T11:29:28.318Z,5.60
2022-08-29T11:32:27.232Z,4.30
2022-08-29T11:35:15.066Z,4.32
2022-08-29T11:38:03.845Z,4.90
2022-08-29T11:43:43.224Z,4.55
2022-08-29T11:46:14.023Z,3.45
2022-08-29T11:48:46.231Z,4.38
2022-08-29T11:51:42.639Z,5.57
2022-08-29T11:54:25.188Z,4.05
2022-08-29T11:57:01.663Z,5.55
2022-08-29T11:59:50.077Z,4.47
2022-08-29T12:02:31.926Z,4.38
2022-08-29T12:05:28.111Z,4.78
2022-08-29T12:08:35.550Z,5.38
2022-08-29T12:11:00.643Z,4.50
2022-08-29T12:13:48.536Z,6.13
2022-08-29T12:16:27.121Z,4.22
2022-08-29T12:18:56.645Z,4.20
2022-08-29T12:21:39.533Z,4.90
2022-08-29T12:24:28.120Z,5.22
2022-08-29T12:26:55.351Z,5.55
2022-08-29T12:29:41.052Z,3.63
2022-08-29T12:32:23.841Z,4.70
2022-08-29T12:35:09.980Z,4.55
2022-08-29T12:37:46.415Z,5.32
2022-08-29T12:40:36.859Z,4.50
2022-08-29T12:43:25.552Z,4.40
2022-08-29T12:45:53.854Z,4.43
2022-08-29T12:48:25.967Z,3.55
2022-08-29T12:50:54.077Z,3.65
2022-08-29T12:53:33.416Z,3.90
2022-08-29T12:56:02.515Z,3.80
2022-08-29T12:58:56.772Z,4.72
2022-08-29T13:01:39.076Z,3.70
2022-08-29T13:04:15.515Z,3.53
2022-08-29T13:06:59.146Z,3.42
2022-08-29T13:09:27.396Z,3.55
2022-08-29T13:12:26.843Z,3.08
2022-08-29T13:15:00.674Z,3.35
2022-08-29T13:17:30.699Z,3.10
2022-08-29T13:20:38.858Z,2.35
2022-08-29T13:23:11.976Z,3.27
2022-08-29T13:26:07.050Z,3.50
2022-08-29T13:28:54.564Z,2.92
2022-08-29T13:31:30.501Z,2.90
2022-08-29T13:33:57.414Z,2.45
2022-08-29T13:36:27.159Z,2.55
2022-08-29T13:39:27.197Z,2.80
2022-08-29T13:42:03.006Z,2.88
2022-08-29T13:44:36.308Z,2.90
2022-08-29T13:47:14.038Z,3.97
2022-08-29T13:49:41.595Z,2.88
2022-08-29T13:52:10.572Z,2.92
2022-08-29T13:54:43.159Z,3.25
2022-08-29T13:57:17.575Z,3.08
2022-08-29T13:59:44.980Z,2.88
2022-08-29T14:02:14.921Z,3.45
2022-08-29T14:04:43.337Z,3.30
2022-08-29T14:07:17.476Z,2.75
2022-08-29T14:09:46.183Z,3.17
2022-08-29T14:12:14.900Z,3.42
2022-08-29T14:14:45.604Z,3.65
2022-08-29T14:17:18.498Z,3.03
2022-08-29T14:19:46.989Z,3.00
2022-08-29T14:22:14.653Z,2.63
2022-08-29T14:24:42.375Z,4.32
2022-08-29T14:27:09.691Z,4.57
2022-08-29T14:29:37.089Z,2.92
2022-08-29T14:32:04.912Z,3.60
2022-08-29T14:34:33.104Z,3.08
2022-08-29T14:37:01.235Z,4.90
2022-08-29T14:39:28.898Z,2.88
2022-08-29T14:41:56.019Z,2.92
2022-08-29T14:44:23.621Z,3.03
2022-08-29T14:46:51.380Z,2.53
2022-08-29T14:49:19.201Z,3.13
2022-08-29T14:51:46.839Z,3.30
2022-08-29T14:54:13.939Z,2.90
2022-08-29T14:56:48.607Z,2.58
2022-08-29T14:59:17.350Z,3.08
2022-08-29T15:01:48.675Z,3.30
2022-08-29T15:04:34.820Z,3.78
2022-08-29T15:07:13.793Z,2.85
2022-08-29T15:09:43.810Z,2.65
2022-08-29T15:12:16.971Z,3.45
2022-08-29T15:14:45.091Z,2.72
2022-08-29T15:17:13.166Z,4.15
2022-08-29T15:22:27.916Z,3.35
2022-08-29T15:24:54.902Z,3.20
2022-08-29T15:27:27.384Z,3.60
2022-08-29T15:29:55.491Z,2.90
2022-08-29T15:32:22.745Z,3.70
2022-08-29T15:34:49.867Z,2.63
2022-08-29T15:37:17.105Z,3.38
2022-08-29T15:39:44.099Z,3.72
2022-08-29T15:42:12.119Z,3.65
2022-08-29T15:44:44.665Z,4.15
2022-08-29T15:47:11.716Z,3.42
2022-08-29T15:49:39.674Z,3.20
2022-08-29T15:52:06.910Z,3.90
2022-08-29T15:54:33.872Z,4.15
2022-08-29T15:57:00.750Z,3.35
2022-08-29T15:59:54.192Z,3.45
2022-08-29T16:02:15.458Z,4.22
2022-08-29T16:04:47.864Z,3.47
2022-08-29T16:07:15.857Z,3.13
2022-08-29T16:09:43.498Z,3.90
2022-08-29T16:12:11.845Z,4.20
2022-08-29T16:14:58.458Z,4.57
2022-08-29T16:17:29.846Z,3.88
2022-08-29T16:19:58.198Z,3.95
2022-08-29T16:22:27.861Z,3.72
2022-08-29T16:24:55.330Z,4.07
2022-08-29T16:27:24.261Z,3.83
2022-08-29T16:29:52.996Z,3.60
2022-08-29T16:32:20.299Z,3.55
2022-08-29T16:34:47.343Z,4.43
2022-08-29T16:37:14.687Z,4.28
2022-08-29T16:39:41.677Z,4.50
2022-08-29T16:42:09.413Z,4.15
2022-08-29T16:44:36.509Z,4.47
2022-08-29T16:47:03.491Z,4.25
2022-08-29T16:49:30.925Z,4.68
2022-08-29T16:51:57.819Z,5.38
2022-08-29T16:54:24.710Z,4.38
2022-08-29T16:56:52.469Z,4.82
2022-08-29T16:59:19.408Z,4.82
2022-08-29T17:01:49.151Z,4.05
2022-08-29T17:04:22.091Z,4.03
2022-08-29T17:06:49.449Z,5.05
2022-08-29T17:09:18.388Z,4.20
2022-08-29T17:11:46.028Z,6.57
2022-08-29T17:14:14.126Z,6.78
2022-08-29T17:16:42.698Z,4.47
2022-08-29T17:19:09.821Z,5.07
2022-08-29T17:21:37.731Z,5.55
2022-08-29T17:24:08.913Z,4.95
2022-08-29T17:26:40.819Z,5.80
2022-08-29T17:29:10.189Z,4.93
2022-08-29T17:31:38.911Z,5.53
2022-08-29T17:34:07.566Z,5.07
2022-08-29T17:36:36.744Z,5.88
2022-08-29T17:39:05.758Z,6.18
2022-08-29T17:41:34.878Z,6.28
2022-08-29T17:44:02.315Z,5.82
2022-08-29T17:46:30.086Z,5.60
2022-08-29T17:48:57.174Z,5.95
2022-08-29T17:51:24.773Z,4.90
2022-08-29T17:53:52.428Z,6.07
2022-08-29T17:56:26.866Z,6.03
2022-08-29T17:58:53.931Z,4.40
2022-08-29T18:01:21.011Z,5.35
2022-08-29T18:03:47.971Z,5.47
2022-08-29T18:06:15.416Z,6.00
2022-08-29T18:08:47.754Z,5.60
2022-08-29T18:11:17.048Z,5.15
2022-08-29T18:13:44.486Z,6.32
2022-08-29T18:16:12.267Z,4.78
2022-08-29T18:18:39.595Z,5.00
2022-08-29T18:21:07.374Z,6.07
2022-08-29T18:23:35.441Z,5.43
2022-08-29T18:26:03.520Z,4.80
2022-08-29T18:28:30.966Z,5.13
2022-08-29T18:30:58.860Z,4.40
2022-08-29T18:33:38.774Z,4.88
2022-08-29T18:36:11.555Z,4.53
2022-08-29T18:38:38.497Z,4.40
2022-08-29T18:41:06.483Z,3.60
2022-08-29T18:43:34.879Z,3.85
2022-08-29T18:46:06.230Z,5.35
2022-08-29T18:48:33.329Z,5.32
2022-08-29T18:51:00.295Z,4.25
2022-08-29T18:53:31.633Z,4.35
2022-08-29T18:56:00.733Z,3.88
2022-08-29T18:58:30.654Z,4.95
2022-08-29T19:00:59.459Z,3.60
2022-08-29T19:03:26.688Z,4.15
2022-08-29T19:05:54.102Z,3.72
2022-08-29T19:08:24.729Z,3.58
2022-08-29T19:10:55.255Z,4.18
2022-08-29T19:13:25.120Z,3.88
2022-08-29T19:15:56.507Z,3.97
2022-08-29T19:18:23.713Z,3.17
2022-08-29T19:21:02.817Z,3.95
2022-08-29T19:23:31.288Z,3.65
2022-08-29T19:25:58.527Z,3.60
2022-08-29T19:28:27.632Z,4.53
2022-08-29T19:30:55.529Z,3.15
2022-08-29T19:33:22.943Z,2.90
2022-08-29T19:35:51.523Z,3.85
2022-08-29T19:38:20.401Z,3.90
2022-08-29T19:40:48.762Z,4.05
2022-08-29T19:43:16.130Z,3.53
2022-08-29T19:45:44.364Z,4.07
2022-08-29T19:48:15.103Z,3.55
2022-08-29T19:50:43.090Z,3.65
2022-08-29T19:53:21.505Z,3.30
2022-08-29T19:55:54.617Z,3.75
2022-08-29T19:58:31.068Z,3.80
2022-08-29T20:01:00.669Z,3.38
2022-08-29T20:03:28.966Z,2.65
2022-08-29T20:05:56.523Z,3.40
2022-08-29T20:08:23.491Z,3.35
2022-08-29T20:10:51.350Z,3.92
2022-08-29T20:13:19.783Z,3.92
2022-08-29T20:15:47.329Z,3.20
2022-08-29T20:18:14.943Z,3.38
2022-08-29T20:20:41.921Z,3.45
2022-08-29T20:23:09.214Z,4.57
2022-08-29T20:25:36.441Z,3.60
2022-08-29T20:28:05.999Z,3.70
2022-08-29T20:30:34.722Z,3.38
2022-08-29T20:33:02.157Z,4.03
2022-08-29T20:35:47.536Z,3.35
2022-08-29T20:38:15.043Z,4.50
2022-08-29T20:40:46.889Z,3.92
2022-08-29T20:43:14.945Z,3.22
2022-08-29T20:45:42.699Z,3.25
2022-08-29T20:48:10.554Z,4.45
2022-08-29T20:50:37.633Z,3.30
2022-08-29T20:53:05.909Z,4.35
2022-08-29T20:55:32.978Z,4.50
2022-08-29T20:58:00.180Z,4.00
2022-08-29T21:00:27.953Z,3.67
2022-08-29T21:03:13.553Z,3.53
2022-08-29T21:05:43.507Z,4.75
2022-08-29T21:08:14.994Z,3.67
2022-08-29T21:10:43.001Z,4.05
2022-08-29T21:13:10.763Z,4.57
2022-08-29T21:15:39.978Z,5.30
2022-08-29T21:18:07.983Z,4.43
2022-08-29T21:20:44.994Z,4.82
2022-08-29T21:23:23.251Z,4.90
2022-08-29T21:25:56.014Z,5.30
2022-08-29T21:28:24.918Z,3.97
2022-08-29T21:30:52.593Z,2.95
2022-08-29T21:33:20.792Z,3.97
2022-08-29T21:35:50.205Z,4.43
2022-08-29T21:38:17.832Z,4.32
2022-08-29T21:40:51.018Z,4.15
2022-08-29T21:43:19.848Z,4.60
2022-08-29T21:45:47.724Z,5.22
2022-08-29T21:48:14.751Z,4.57
2022-08-29T21:50:42.002Z,4.13
2022-08-29T21:53:14.971Z,3.55
2022-08-29T21:55:42.418Z,4.05
2022-08-29T21:58:09.499Z,4.63
2022-08-29T22:00:37.990Z,4.38
2022-08-29T22:03:07.103Z,4.53
2022-08-29T22:05:34.059Z,4.65
2022-08-29T22:08:03.297Z,5.32
2022-08-29T22:10:33.725Z,3.88
2022-08-29T22:13:01.932Z,3.70
2022-08-29T22:15:47.738Z,5.13
2022-08-29T22:18:15.312Z,4.30
2022-08-29T22:20:47.655Z,3.58
2022-08-29T22:23:20.547Z,4.10
2022-08-29T22:25:47.641Z,3.83
2022-08-29T22:28:14.621Z,4.93
2022-08-29T22:30:41.680Z,3.47
2022-08-29T22:33:09.038Z,5.15
2022-08-29T22:35:43.250Z,5.68
2022-08-29T22:38:10.475Z,4.85
2022-08-29T22:40:37.540Z,4.97
2022-08-29T22:43:04.715Z,3.58
2022-08-29T22:45:32.409Z,3.85
2022-08-29T22:47:59.446Z,4.90
2022-08-29T22:50:26.492Z,4.57
2022-08-29T22:52:58.091Z,5.30
2022-08-29T22:57:51.487Z,3.88
2022-08-29T23:00:22.663Z,3.92
2022-08-29T23:02:50.880Z,4.75
2022-08-29T23:05:20.043Z,4.05
2022-08-29T23:07:47.005Z,4.00
2022-08-29T23:10:15.134Z,5.25
2022-08-29T23:12:42.236Z,3.92
2022-08-29T23:15:13.606Z,4.88
2022-08-29T23:17:41.238Z,6.07
2022-08-29T23:20:11.674Z,3.60
2022-08-29T23:22:42.830Z,5.13
2022-08-29T23:25:12.261Z,5.03
2022-08-29T23:27:40.018Z,4.85
2022-08-29T23:30:12.088Z,4.93
2022-08-29T23:32:39.205Z,4.63
2022-08-29T23:35:07.727Z,5.47
2022-08-29T23:37:34.913Z,4.20
2022-08-29T23:40:02.462Z,4.97
2022-08-29T23:42:29.548Z,4.68
2022-08-29T23:44:57.601Z,4.53
2022-08-29T23:47:24.551Z,5.88
2022-08-29T23:49:51.582Z,4.97
2022-08-29T23:52:18.789Z,4.45
2022-08-29T23:54:45.781Z,4.95
2022-08-29T23:57:12.895Z,5.75
2022-08-29T23:59:58.537Z,4.82
